Time;durP1;ratioP1;P1;durP2;ratioP2;P2;SDS_P1;SDS_P2;PMS_P1;PMS_P2;Temp;Humidity;BMP_temperature;BMP_pressure;BME280_temperature;BME280_humidity;BME280_pressure;Samples;Min_cycle;Max_cycle;Signal;HPM_P1;HPM_P2
2023/07/09 00:00:13;;;;;;;9.88;5.30;;;21.10;99.90;;;;;;5000023;28;20034;-71
2023/07/09 00:02:39;;;;;;;7.35;3.92;;;21.20;99.90;;;;;;5004629;28;20027;-71
2023/07/09 00:05:09;;;;;;;9.15;4.55;;;21.20;99.90;;;;;;5011205;28;20036;-71
2023/07/09 00:07:36;;;;;;;8.57;4.13;;;21.10;99.90;;;;;;5004291;28;20436;-71
2023/07/09 00:10:02;;;;;;;10.68;4.63;;;21.10;99.90;;;;;;4995335;28;20022;-71
2023/07/09 00:12:28;;;;;;;10.85;4.85;;;21.20;99.90;;;;;;5000411;28;20036;-71
2023/07/09 00:14:54;;;;;;;9.55;4.82;;;21.30;99.90;;;;;;5010879;28;20128;-71
2023/07/09 00:17:27;;;;;;;10.38;4.35;;;21.40;99.90;;;;;;5007126;28;20120;-71
2023/07/09 00:19:53;;;;;;;8.52;4.97;;;21.50;99.90;;;;;;5011698;28;20045;-71
2023/07/09 00:22:20;;;;;;;9.40;4.15;;;21.10;99.90;;;;;;5010077;28;20499;-71
2023/07/09 00:24:50;;;;;;;7.93;4.25;;;21.00;99.90;;;;;;5001334;28;20031;-71
2023/07/09 00:27:22;;;;;;;7.53;4.18;;;21.00;99.90;;;;;;5011279;28;20029;-71
2023/07/09 00:29:47;;;;;;;7.68;4.40;;;20.90;99.90;;;;;;5011393;28;20065;-71
2023/07/09 00:32:15;;;;;;;10.00;5.00;;;20.80;99.90;;;;;;5011038;28;20030;-71
2023/07/09 00:34:48;;;;;;;8.45;4.70;;;20.80;99.90;;;;;;5000006;28;20026;-71
2023/07/09 00:37:15;;;;;;;8.07;4.38;;;20.80;99.90;;;;;;5011564;28;20380;-71
2023/07/09 00:39:41;;;;;;;10.27;4.03;;;20.80;99.90;;;;;;5001531;28;20035;-71
2023/07/09 00:42:17;;;;;;;9.27;4.22;;;20.80;99.90;;;;;;5001541;28;20030;-71
2023/07/09 00:44:45;;;;;;;8.13;4.30;;;20.80;99.90;;;;;;5010128;28;20038;-71
2023/07/09 00:47:25;;;;;;;9.50;4.55;;;20.90;99.90;;;;;;5010927;28;20030;-71
2023/07/09 00:50:01;;;;;;;6.93;4.25;;;20.80;99.90;;;;;;5005676;28;20045;-71
2023/07/09 00:52:37;;;;;;;8.55;4.75;;;20.90;99.90;;;;;;5003934;28;20411;-71
2023/07/09 00:55:09;;;;;;;8.80;4.80;;;20.90;99.90;;;;;;5000192;28;20029;-71
2023/07/09 00:57:38;;;;;;;7.88;4.35;;;20.90;99.90;;;;;;5006927;28;20029;-71
2023/07/09 01:00:09;;;;;;;7.15;3.88;;;20.90;99.90;;;;;;5001566;28;20442;-71
2023/07/09 01:02:36;;;;;;;17.83;5.30;;;20.80;99.90;;;;;;5010441;28;20057;-71
2023/07/09 01:05:04;;;;;;;7.75;5.32;;;20.70;99.90;;;;;;5010982;28;20026;-71
2023/07/09 01:07:30;;;;;;;8.48;4.35;;;20.60;99.90;;;;;;5006768;28;20056;-71
2023/07/09 01:09:56;;;;;;;9.18;4.30;;;20.80;99.90;;;;;;4997054;28;20444;-71
2023/07/09 01:12:23;;;;;;;10.52;4.80;;;20.70;99.90;;;;;;4996207;28;20106;-71
2023/07/09 01:14:53;;;;;;;7.60;4.10;;;20.60;99.90;;;;;;5010100;28;20045;-71
2023/07/09 01:17:19;;;;;;;9.00;4.45;;;20.50;99.90;;;;;;5003215;28;20026;-71
2023/07/09 01:19:49;;;;;;;9.60;4.05;;;20.30;99.90;;;;;;5001672;28;20552;-71
2023/07/09 01:22:18;;;;;;;6.72;4.00;;;20.10;99.90;;;;;;5005017;28;20026;-71
2023/07/09 01:25:01;;;;;;;9.80;4.82;;;20.10;99.90;;;;;;4993712;28;20026;-71
2023/07/09 01:27:34;;;;;;;9.10;4.57;;;20.30;99.90;;;;;;5004348;28;20503;-71
2023/07/09 01:30:03;;;;;;;8.57;4.05;;;20.20;99.90;;;;;;4998821;28;20040;-71
2023/07/09 01:32:29;;;;;;;9.57;4.85;;;20.10;99.90;;;;;;5009254;28;20034;-71
2023/07/09 01:35:04;;;;;;;11.07;4.85;;;20.20;99.90;;;;;;5010414;28;20092;-71
2023/07/09 01:37:32;;;;;;;9.32;4.85;;;20.20;99.90;;;;;;5000461;28;20113;-70
2023/07/09 01:39:58;;;;;;;10.07;4.72;;;20.30;99.90;;;;;;5010613;28;20034;-71
2023/07/09 01:42:28;;;;;;;11.77;5.28;;;20.20;99.90;;;;;;4996064;28;20030;-71
2023/07/09 01:44:54;;;;;;;9.00;5.00;;;20.10;99.90;;;;;;5007205;28;20026;-71
2023/07/09 01:47:20;;;;;;;8.35;4.07;;;20.00;99.90;;;;;;5009318;28;20026;-71
2023/07/09 01:49:46;;;;;;;9.60;4.65;;;20.30;99.90;;;;;;5010105;28;20117;-71
2023/07/09 01:52:16;;;;;;;8.25;5.10;;;20.60;99.90;;;;;;5009841;28;20097;-71
2023/07/09 01:54:49;;;;;;;15.80;5.05;;;20.40;99.90;;;;;;5006630;28;20068;-71
2023/07/09 01:57:24;;;;;;;7.57;4.97;;;20.20;99.90;;;;;;5003315;28;20109;-71
2023/07/09 01:59:52;;;;;;;9.35;4.07;;;20.10;99.90;;;;;;5003012;28;20060;-71
2023/07/09 02:02:19;;;;;;;10.98;5.15;;;19.90;99.90;;;;;;5004100;28;20104;-71
2023/07/09 02:04:49;;;;;;;8.38;4.57;;;20.10;99.90;;;;;;4999941;28;20117;-71
2023/07/09 02:07:15;;;;;;;8.63;4.85;;;20.20;99.90;;;;;;5000454;28;20022;-71
2023/07/09 02:09:41;;;;;;;9.18;4.65;;;20.20;99.90;;;;;;5010869;28;20025;-71
2023/07/09 02:12:09;;;;;;;11.25;5.07;;;20.20;99.90;;;;;;5005754;28;20037;-71
2023/07/09 02:14:35;;;;;;;11.38;5.18;;;20.00;99.90;;;;;;5009523;28;20041;-71
2023/07/09 02:17:01;;;;;;;12.55;5.43;;;20.00;99.90;;;;;;5014218;28;20349;-71
2023/07/09 02:19:29;;;;;;;8.80;4.60;;;20.00;99.90;;;;;;4996879;28;20044;-71
2023/07/09 02:21:55;;;;;;;11.40;4.97;;;19.90;99.90;;;;;;5005715;28;20038;-71
2023/07/09 02:24:24;;;;;;;13.07;5.57;;;19.90;99.90;;;;;;5013188;28;20030;-71
2023/07/09 02:26:54;;;;;;;15.80;5.10;;;20.00;99.90;;;;;;5012376;28;20108;-71
2023/07/09 02:29:19;;;;;;;13.13;5.05;;;20.10;99.90;;;;;;5010225;28;20038;-71
2023/07/09 02:31:45;;;;;;;11.48;5.78;;;20.10;99.90;;;;;;5006680;28;20631;-71
2023/07/09 02:34:11;;;;;;;11.50;5.70;;;20.00;99.90;;;;;;5007899;28;20519;-71
2023/07/09 02:36:37;;;;;;;14.23;4.95;;;20.10;99.90;;;;;;5012362;28;20069;-70
2023/07/09 02:39:03;;;;;;;9.55;5.40;;;20.20;99.90;;;;;;5008116;28;20045;-71
2023/07/09 02:41:28;;;;;;;15.63;5.20;;;20.10;99.90;;;;;;5013303;28;20033;-71
2023/07/09 02:43:54;;;;;;;11.68;5.30;;;19.80;99.90;;;;;;5012572;28;20034;-71
2023/07/09 02:46:20;;;;;;;14.77;5.25;;;19.90;99.90;;;;;;5007922;28;20042;-71
2023/07/09 02:48:45;;;;;;;12.25;5.35;;;19.90;99.90;;;;;;5008422;28;20061;-71
2023/07/09 02:51:11;;;;;;;10.15;5.22;;;19.80;99.90;;;;;;5011900;28;20030;-71
2023/07/09 02:53:37;;;;;;;9.63;4.28;;;19.60;99.90;;;;;;5007453;28;20115;-71
2023/07/09 02:56:02;;;;;;;15.15;5.45;;;19.80;99.90;;;;;;5002448;28;20033;-71
2023/07/09 02:58:28;;;;;;;8.98;5.10;;;20.00;99.90;;;;;;5012857;28;20124;-71
2023/07/09 03:00:54;;;;;;;11.75;5.45;;;20.00;99.90;;;;;;5005841;28;20034;-72
2023/07/09 03:03:20;;;;;;;12.45;5.40;;;19.90;99.90;;;;;;5001259;28;20122;-72
2023/07/09 03:05:47;;;;;;;8.60;4.70;;;19.80;99.90;;;;;;5006786;28;20468;-72
2023/07/09 03:08:14;;;;;;;9.73;4.40;;;19.80;99.90;;;;;;5005918;28;20076;-72
2023/07/09 03:10:40;;;;;;;10.50;5.18;;;20.10;99.90;;;;;;5004767;28;20435;-71
2023/07/09 03:13:06;;;;;;;10.40;5.22;;;20.00;99.90;;;;;;5001014;28;20037;-72
2023/07/09 03:15:32;;;;;;;9.00;4.57;;;19.90;99.90;;;;;;4994231;28;20554;-71
2023/07/09 03:17:57;;;;;;;9.90;5.30;;;19.80;99.90;;;;;;5001888;28;20026;-71
2023/07/09 03:20:25;;;;;;;8.15;4.50;;;19.60;99.90;;;;;;4997770;28;20038;-72
2023/07/09 03:22:51;;;;;;;9.52;4.57;;;19.40;99.90;;;;;;5003528;28;20108;-72
2023/07/09 03:25:16;;;;;;;12.38;4.72;;;19.30;99.90;;;;;;5002294;28;20113;-72
2023/07/09 03:27:42;;;;;;;9.13;4.95;;;19.30;99.90;;;;;;4995365;28;20037;-72
2023/07/09 03:30:08;;;;;;;8.80;4.75;;;19.30;99.90;;;;;;5006128;28;20022;-71
2023/07/09 03:32:34;;;;;;;8.85;4.88;;;19.40;99.90;;;;;;5008169;28;20753;-71
2023/07/09 03:34:59;;;;;;;9.30;5.32;;;19.40;99.90;;;;;;5008028;28;20045;-71
2023/07/09 03:37:25;;;;;;;8.60;4.78;;;19.40;99.90;;;;;;5007703;28;20034;-71
2023/07/09 03:39:50;;;;;;;7.57;4.88;;;19.50;99.90;;;;;;5000155;28;20065;-71
2023/07/09 03:42:16;;;;;;;9.68;4.95;;;19.40;99.90;;;;;;5002312;28;20034;-72
2023/07/09 03:44:42;;;;;;;7.70;4.75;;;19.50;99.90;;;;;;5003568;28;20040;-72
2023/07/09 03:47:08;;;;;;;9.25;4.72;;;19.60;99.90;;;;;;5003527;28;20033;-72
2023/07/09 03:49:34;;;;;;;11.38;4.80;;;19.60;99.90;;;;;;5000498;28;20027;-72
2023/07/09 03:51:59;;;;;;;9.85;4.72;;;19.70;99.90;;;;;;5007494;28;20391;-72
2023/07/09 03:54:25;;;;;;;8.13;4.70;;;19.90;99.90;;;;;;5007082;28;20041;-72
2023/07/09 03:56:50;;;;;;;9.38;4.70;;;20.00;99.90;;;;;;5007745;28;20049;-72
2023/07/09 03:59:16;;;;;;;9.68;4.47;;;19.90;99.90;;;;;;4989833;28;20045;-71
2023/07/09 04:01:45;;;;;;;8.30;4.20;;;19.90;99.90;;;;;;4992965;28;20469;-72
2023/07/09 04:04:14;;;;;;;9.82;4.95;;;19.80;99.90;;;;;;4994630;28;20480;-71
2023/07/09 04:06:40;;;;;;;10.88;5.05;;;19.90;99.90;;;;;;5004236;28;20080;-72
2023/07/09 04:09:05;;;;;;;8.25;5.68;;;19.90;99.90;;;;;;5002885;28;20034;-72
2023/07/09 04:11:31;;;;;;;9.73;4.93;;;19.80;99.90;;;;;;5004003;28;20029;-71
2023/07/09 04:13:57;;;;;;;15.25;5.30;;;19.70;99.90;;;;;;5004287;28;20026;-71
2023/07/09 04:16:22;;;;;;;10.90;5.10;;;19.50;99.90;;;;;;4993097;28;20030;-72
2023/07/09 04:18:48;;;;;;;13.40;5.32;;;19.40;99.90;;;;;;4992626;28;20054;-72
2023/07/09 04:21:14;;;;;;;8.93;5.03;;;19.20;99.90;;;;;;5004331;28;20502;-72
2023/07/09 04:23:40;;;;;;;8.30;4.72;;;19.40;99.90;;;;;;5003236;28;20026;-71
2023/07/09 04:26:09;;;;;;;12.38;4.68;;;19.40;99.90;;;;;;5003489;28;20364;-71
2023/07/09 04:28:34;;;;;;;12.25;5.40;;;19.40;99.90;;;;;;5003921;28;20049;-71
2023/07/09 04:31:00;;;;;;;9.70;5.60;;;19.50;99.90;;;;;;5004302;28;20029;-72
2023/07/09 04:33:26;;;;;;;13.98;5.80;;;19.50;99.90;;;;;;4998101;28;20105;-72
2023/07/09 04:35:51;;;;;;;9.63;5.50;;;19.50;99.90;;;;;;5001697;28;20034;-72
2023/07/09 04:38:18;;;;;;;9.25;5.57;;;19.60;99.90;;;;;;5000058;28;20042;-71
2023/07/09 04:40:44;;;;;;;13.50;5.65;;;19.40;99.90;;;;;;4996548;28;20030;-72
2023/07/09 04:43:09;;;;;;;11.93;5.35;;;19.30;99.90;;;;;;5001049;28;20488;-72
2023/07/09 04:45:35;;;;;;;11.93;5.07;;;19.40;99.90;;;;;;5001626;28;20046;-72
2023/07/09 04:48:01;;;;;;;9.35;4.78;;;19.50;99.90;;;;;;4997139;28;20572;-72
2023/07/09 04:50:26;;;;;;;11.98;5.30;;;19.60;99.90;;;;;;4999648;28;20097;-71
2023/07/09 04:52:52;;;;;;;13.20;5.90;;;19.60;99.90;;;;;;5000876;28;20160;-71
2023/07/09 04:55:18;;;;;;;9.95;5.20;;;19.60;99.90;;;;;;5003126;28;20053;-71
2023/07/09 04:57:45;;;;;;;13.30;4.85;;;19.70;99.90;;;;;;4995782;28;20093;-72
2023/07/09 05:00:11;;;;;;;14.38;5.05;;;19.60;99.90;;;;;;5003288;28;20036;-72
2023/07/09 05:02:37;;;;;;;10.55;5.03;;;19.70;99.90;;;;;;5002999;28;20065;-72
2023/07/09 05:05:03;;;;;;;8.13;4.85;;;19.90;99.90;;;;;;5000476;28;20058;-72
2023/07/09 05:07:29;;;;;;;12.75;6.03;;;20.00;99.90;;;;;;4995297;28;20455;-72
2023/07/09 05:09:54;;;;;;;8.40;5.40;;;20.10;99.90;;;;;;5001257;28;20337;-72
2023/07/09 05:12:20;;;;;;;9.48;4.78;;;20.10;99.90;;;;;;5002781;28;20053;-72
2023/07/09 05:14:46;;;;;;;8.65;5.03;;;20.20;99.90;;;;;;5002905;28;20036;-72
2023/07/09 05:17:12;;;;;;;7.85;4.75;;;20.20;99.90;;;;;;5002016;28;20384;-72
2023/07/09 05:19:38;;;;;;;9.20;5.28;;;20.30;99.90;;;;;;4997310;28;20042;-72
2023/07/09 05:22:04;;;;;;;10.85;5.25;;;20.10;99.90;;;;;;4998623;28;20582;-71
2023/07/09 05:24:30;;;;;;;12.00;5.90;;;20.40;99.90;;;;;;5003420;28;20121;-72
2023/07/09 05:26:56;;;;;;;10.80;5.00;;;20.30;99.90;;;;;;4997113;28;20034;-72
2023/07/09 05:29:22;;;;;;;7.45;4.85;;;20.10;99.90;;;;;;5001696;28;20042;-72
2023/07/09 05:31:47;;;;;;;7.50;4.30;;;20.20;99.90;;;;;;5003588;28;20779;-72
2023/07/09 05:34:13;;;;;;;9.55;5.32;;;20.30;99.90;;;;;;5002399;28;20030;-72
2023/07/09 05:36:39;;;;;;;7.82;4.65;;;20.40;99.90;;;;;;5003062;28;20032;-72
2023/07/09 05:39:05;;;;;;;10.25;5.03;;;20.30;99.90;;;;;;4998602;28;20121;-71
2023/07/09 05:41:30;;;;;;;10.52;4.95;;;20.50;99.90;;;;;;4999719;28;20044;-72
2023/07/09 05:43:56;;;;;;;12.05;5.30;;;20.60;99.90;;;;;;5001519;28;20123;-72
2023/07/09 05:46:22;;;;;;;9.05;5.22;;;20.70;99.90;;;;;;5009286;28;20026;-72
2023/07/09 05:48:48;;;;;;;9.45;4.75;;;20.70;99.90;;;;;;4999200;28;20451;-72
2023/07/09 05:51:14;;;;;;;10.32;5.82;;;20.70;99.90;;;;;;5009346;28;20061;-72
2023/07/09 05:53:40;;;;;;;12.27;5.43;;;20.80;99.90;;;;;;5010278;28;20026;-72
2023/07/09 05:56:06;;;;;;;9.10;5.38;;;20.90;99.90;;;;;;5002168;28;20030;-72
2023/07/09 05:58:32;;;;;;;10.75;4.85;;;21.00;99.90;;;;;;5007662;28;20347;-72
2023/07/09 06:00:58;;;;;;;9.02;5.65;;;21.10;99.90;;;;;;5000438;28;20587;-72
2023/07/09 06:03:26;;;;;;;10.73;5.15;;;21.10;99.90;;;;;;5004836;28;20472;-72
2023/07/09 06:05:53;;;;;;;10.98;5.28;;;21.20;99.90;;;;;;5009347;28;20052;-72
2023/07/09 06:08:19;;;;;;;8.95;5.00;;;21.20;99.90;;;;;;5009437;28;20036;-72
2023/07/09 06:10:57;;;;;;;8.38;4.75;;;21.20;99.90;;;;;;5005025;28;20041;-72
2023/07/09 06:13:24;;;;;;;10.50;5.00;;;21.20;99.90;;;;;;5008389;28;20025;-72
2023/07/09 06:15:51;;;;;;;10.48;5.70;;;21.20;99.90;;;;;;5009089;28;20030;-72
2023/07/09 06:18:17;;;;;;;11.10;5.55;;;21.20;99.90;;;;;;5006930;28;20037;-72
2023/07/09 06:20:48;;;;;;;9.05;5.50;;;21.30;99.90;;;;;;5004988;28;20034;-72
2023/07/09 06:23:14;;;;;;;12.18;6.07;;;21.50;99.90;;;;;;5008303;28;20032;-72
2023/07/09 06:25:40;;;;;;;10.85;5.60;;;21.50;99.90;;;;;;5008948;28;20034;-72
2023/07/09 06:28:05;;;;;;;11.43;6.20;;;21.50;99.90;;;;;;5006188;28;20038;-72
2023/07/09 06:30:31;;;;;;;9.57;5.43;;;21.50;99.90;;;;;;5007519;28;20045;-72
2023/07/09 06:32:57;;;;;;;9.80;5.70;;;21.50;99.90;;;;;;5008436;28;20029;-72
2023/07/09 06:35:22;;;;;;;9.65;5.38;;;21.60;99.90;;;;;;5006529;28;20113;-72
2023/07/09 06:37:48;;;;;;;10.48;5.20;;;21.70;99.90;;;;;;4992494;28;20072;-72
2023/07/09 06:40:14;;;;;;;7.57;5.38;;;21.70;99.90;;;;;;5007949;28;20853;-72
2023/07/09 06:42:39;;;;;;;9.95;5.85;;;21.70;99.90;;;;;;5009152;28;20101;-72
2023/07/09 06:45:06;;;;;;;8.70;5.30;;;21.70;99.90;;;;;;5005142;28;20065;-72
2023/07/09 06:47:31;;;;;;;10.48;6.43;;;21.70;99.90;;;;;;5008092;28;20041;-72
2023/07/09 06:49:57;;;;;;;9.20;5.38;;;21.80;99.90;;;;;;5019105;28;20033;-72
2023/07/09 06:52:23;;;;;;;7.30;4.88;;;21.80;99.90;;;;;;5009338;28;20029;-72
2023/07/09 06:54:49;;;;;;;10.77;5.55;;;21.90;99.90;;;;;;5008723;28;20053;-72
2023/07/09 06:57:15;;;;;;;9.70;5.60;;;22.10;99.90;;;;;;4999850;28;20726;-72
2023/07/09 06:59:40;;;;;;;7.72;5.57;;;22.20;99.90;;;;;;5001288;28;20041;-72
2023/07/09 07:02:06;;;;;;;8.00;5.43;;;22.40;99.90;;;;;;5007009;28;20041;-72
2023/07/09 07:04:32;;;;;;;10.88;6.05;;;22.60;99.90;;;;;;5007969;28;20026;-72
2023/07/09 07:06:58;;;;;;;10.02;5.85;;;22.80;99.90;;;;;;5008766;28;20030;-72
2023/07/09 07:09:23;;;;;;;12.07;6.63;;;23.00;99.90;;;;;;5006787;28;20041;-72
2023/07/09 07:11:50;;;;;;;10.25;5.40;;;23.30;99.90;;;;;;5001194;28;20175;-72
2023/07/09 07:14:16;;;;;;;10.55;5.65;;;23.50;99.90;;;;;;5008006;28;20035;-72
2023/07/09 07:16:41;;;;;;;11.18;5.57;;;23.60;99.90;;;;;;5004459;28;20117;-72
2023/07/09 07:19:07;;;;;;;8.70;5.25;;;23.90;99.90;;;;;;5005915;28;20045;-72
2023/07/09 07:21:33;;;;;;;10.35;6.00;;;24.10;99.90;;;;;;5004710;28;20444;-72
2023/07/09 07:23:59;;;;;;;9.90;5.63;;;24.30;99.90;;;;;;5004332;28;20029;-72
2023/07/09 07:26:24;;;;;;;9.60;5.90;;;24.30;99.90;;;;;;4994367;28;20038;-72
2023/07/09 07:28:50;;;;;;;9.63;5.88;;;24.40;99.90;;;;;;5001198;28;20080;-72
2023/07/09 07:31:16;;;;;;;9.10;6.13;;;24.70;99.90;;;;;;4999858;28;20048;-72
2023/07/09 07:33:42;;;;;;;10.02;5.72;;;25.00;99.90;;;;;;5001705;28;20038;-72
2023/07/09 07:36:09;;;;;;;9.98;5.30;;;25.90;99.90;;;;;;4998110;28;20041;-72
2023/07/09 07:38:35;;;;;;;10.77;5.13;;;27.00;99.30;;;;;;5003709;28;20038;-72
2023/07/09 07:41:03;;;;;;;10.40;6.53;;;28.00;97.40;;;;;;5007835;28;20044;-72
2023/07/09 07:43:29;;;;;;;11.55;5.90;;;29.20;96.00;;;;;;5001223;28;20029;-72
2023/07/09 07:45:54;;;;;;;9.48;5.20;;;30.10;95.50;;;;;;5006249;28;20036;-72
2023/07/09 07:48:20;;;;;;;9.35;5.22;;;30.50;94.80;;;;;;5007170;28;20034;-72
2023/07/09 07:50:47;;;;;;;10.77;5.80;;;30.70;94.20;;;;;;5001691;28;20027;-72
2023/07/09 07:53:14;;;;;;;10.07;5.40;;;30.70;94.30;;;;;;5005924;28;20033;-72
2023/07/09 07:55:41;;;;;;;7.55;4.97;;;30.30;93.30;;;;;;5007099;28;20024;-72
2023/07/09 07:58:09;;;;;;;9.48;5.65;;;30.30;94.10;;;;;;5007818;28;20105;-72
2023/07/09 08:00:34;;;;;;;9.15;5.25;;;29.90;94.30;;;;;;5007026;28;20036;-72
2023/07/09 08:03:00;;;;;;;8.10;5.43;;;29.40;94.50;;;;;;5006519;28;21315;-72
2023/07/09 08:05:26;;;;;;;10.27;5.90;;;28.50;95.30;;;;;;5007149;28;20030;-73
2023/07/09 08:07:52;;;;;;;9.05;5.60;;;28.20;96.20;;;;;;4999720;28;20040;-72
2023/07/09 08:10:18;;;;;;;9.50;5.68;;;28.00;96.10;;;;;;5007523;28;20026;-72
2023/07/09 08:12:44;;;;;;;8.75;5.53;;;28.10;96.00;;;;;;5006980;28;20069;-72
2023/07/09 08:15:10;;;;;;;10.60;5.22;;;28.10;96.00;;;;;;5003880;28;20034;-72
2023/07/09 08:17:35;;;;;;;8.57;5.85;;;27.60;96.00;;;;;;4994938;28;20018;-72
2023/07/09 08:20:01;;;;;;;10.45;5.47;;;27.00;96.60;;;;;;5004073;28;20034;-72
2023/07/09 08:22:27;;;;;;;9.95;5.40;;;27.20;96.70;;;;;;5001229;28;20030;-72
2023/07/09 08:24:53;;;;;;;7.90;5.03;;;27.20;97.90;;;;;;5003764;28;20478;-72
2023/07/09 08:27:19;;;;;;;9.93;6.15;;;27.20;97.40;;;;;;5006171;28;20629;-73
2023/07/09 08:29:45;;;;;;;8.32;5.25;;;26.50;96.90;;;;;;5005815;28;20066;-72
2023/07/09 08:32:12;;;;;;;9.75;5.38;;;26.90;97.20;;;;;;5005879;28;20052;-72
2023/07/09 08:34:39;;;;;;;7.18;4.80;;;26.90;97.00;;;;;;4995514;28;20026;-72
2023/07/09 08:37:05;;;;;;;9.15;6.20;;;27.10;96.90;;;;;;5003086;28;20113;-73
2023/07/09 08:39:31;;;;;;;9.05;5.32;;;27.30;97.10;;;;;;4999509;28;20034;-73
2023/07/09 08:42:03;;;;;;;8.00;5.28;;;27.60;97.20;;;;;;5006359;28;20112;-73
2023/07/09 08:44:44;;;;;;;8.23;4.88;;;27.30;96.50;;;;;;5006783;28;20030;-72
2023/07/09 08:47:37;;;;;;;10.55;5.15;;;27.70;96.50;;;;;;4997489;28;20053;-73
2023/07/09 08:50:17;;;;;;;8.20;5.03;;;28.00;96.50;;;;;;5005234;28;20117;-73
2023/07/09 08:52:45;;;;;;;10.90;5.70;;;27.90;96.00;;;;;;5005977;28;20030;-73
2023/07/09 08:55:23;;;;;;;12.10;6.10;;;27.80;96.90;;;;;;5006220;28;20559;-72
2023/07/09 08:57:55;;;;;;;9.00;5.15;;;28.00;96.90;;;;;;5006470;28;20581;-73
2023/07/09 09:00:28;;;;;;;12.35;5.53;;;28.00;96.60;;;;;;5002618;28;20042;-72
2023/07/09 09:03:02;;;;;;;12.27;5.85;;;28.20;96.20;;;;;;5002738;28;20099;-72
2023/07/09 09:05:33;;;;;;;8.38;5.63;;;28.20;96.80;;;;;;5003723;28;20029;-73
2023/07/09 09:08:08;;;;;;;8.23;5.45;;;28.10;96.20;;;;;;5006627;28;20034;-73
2023/07/09 09:10:46;;;;;;;11.52;5.82;;;28.20;95.90;;;;;;5006312;28;20110;-73
2023/07/09 09:13:14;;;;;;;7.05;4.65;;;28.30;96.30;;;;;;4998570;28;20026;-73
2023/07/09 09:15:43;;;;;;;10.27;5.75;;;28.20;95.90;;;;;;4999224;28;20048;-73
2023/07/09 09:18:26;;;;;;;10.38;5.78;;;28.00;95.90;;;;;;5002468;28;20034;-73
2023/07/09 09:21:13;;;;;;;10.00;5.82;;;28.20;96.10;;;;;;5003617;28;20615;-73
2023/07/09 09:23:46;;;;;;;8.82;5.22;;;28.50;95.60;;;;;;5009824;28;20029;-73
2023/07/09 09:26:21;;;;;;;;;;;28.80;95.40;;;;;;5011008;28;20053;-73
2023/07/09 09:28:47;;;;;;;10.07;4.60;;;29.00;95.10;;;;;;5009549;28;19917;-73
2023/07/09 09:31:13;;;;;;;8.77;5.30;;;28.80;95.60;;;;;;5010256;28;20021;-72
2023/07/09 09:33:47;;;;;;;10.80;5.93;;;28.80;95.50;;;;;;5009826;28;20034;-73
2023/07/09 09:36:31;;;;;;;8.52;5.40;;;29.10;96.00;;;;;;5003131;28;20022;-73
2023/07/09 09:39:01;;;;;;;;;;;29.20;95.90;;;;;;5002263;28;20037;-73
2023/07/09 09:41:30;;;;;;;10.30;5.43;;;29.20;95.70;;;;;;5010207;28;19916;-73
2023/07/09 09:43:57;;;;;;;10.43;6.07;;;29.70;95.80;;;;;;5006763;28;20101;-73
2023/07/09 09:46:26;;;;;;;9.85;5.45;;;29.80;95.10;;;;;;5001824;28;20030;-73
2023/07/09 09:49:00;;;;;;;9.98;4.82;;;29.90;95.00;;;;;;5008998;28;20037;-73
2023/07/09 09:51:26;;;;;;;9.30;5.28;;;29.80;94.30;;;;;;5010036;28;20026;-73
2023/07/09 09:53:58;;;;;;;18.60;5.90;;;29.90;95.10;;;;;;5007089;28;20030;-73
2023/07/09 09:56:30;;;;;;;10.90;5.68;;;29.70;94.30;;;;;;5008102;28;20034;-73
2023/07/09 09:58:57;;;;;;;7.07;4.72;;;29.70;94.50;;;;;;5009396;28;20034;-73
2023/07/09 10:01:31;;;;;;;8.52;4.43;;;30.00;95.40;;;;;;5004297;28;20144;-73
2023/07/09 10:03:59;;;;;;;12.20;6.93;;;29.90;95.00;;;;;;5009047;28;20026;-73
2023/07/09 10:06:41;;;;;;;13.05;5.28;;;29.90;94.60;;;;;;5006510;28;20026;-73
2023/07/09 10:09:19;;;;;;;6.75;4.68;;;29.90;95.00;;;;;;5009655;28;20026;-73
2023/07/09 10:11:45;;;;;;;10.20;5.90;;;30.30;95.10;;;;;;5009240;28;20073;-73
2023/07/09 10:14:32;;;;;;;13.02;5.40;;;30.20;94.50;;;;;;5009317;28;20088;-73
2023/07/09 10:17:19;;;;;;;8.98;5.10;;;30.20;94.70;;;;;;5020791;28;20064;-73
2023/07/09 10:19:47;;;;;;;8.73;5.70;;;30.30;95.50;;;;;;5004708;28;20048;-73
2023/07/09 10:22:22;;;;;;;8.95;4.53;;;30.50;94.70;;;;;;5002781;28;20122;-73
2023/07/09 10:24:51;;;;;;;10.10;5.40;;;30.40;93.70;;;;;;5008986;28;20037;-73
2023/07/09 10:27:29;;;;;;;9.02;5.32;;;30.40;94.50;;;;;;5005117;28;20038;-73
2023/07/09 10:30:14;;;;;;;8.20;5.10;;;30.00;93.80;;;;;;4991355;28;20105;-73
2023/07/09 10:32:45;;;;;;;10.18;5.32;;;30.20;93.90;;;;;;4991828;28;20030;-73
2023/07/09 10:35:23;;;;;;;8.07;5.10;;;30.50;95.10;;;;;;4989070;28;20069;-73
2023/07/09 10:38:15;;;;;;;8.98;5.57;;;30.50;93.40;;;;;;5008936;28;20032;-73
2023/07/09 10:40:56;;;;;;;7.75;4.45;;;30.30;92.70;;;;;;5008843;28;20504;-73
2023/07/09 10:44:08;;;;;;;8.27;4.57;;;30.20;93.30;;;;;;5008754;28;20025;-73
2023/07/09 10:46:37;;;;;;;9.25;5.38;;;30.30;94.10;;;;;;4989426;28;20040;-73
2023/07/09 10:49:06;;;;;;;7.30;4.50;;;30.80;94.20;;;;;;5008207;28;20041;-73
2023/07/09 10:51:40;;;;;;;8.50;5.32;;;31.00;93.80;;;;;;5007912;28;20037;-73
2023/07/09 10:54:26;;;;;;;10.18;5.35;;;31.40;94.10;;;;;;5008822;28;20030;-73
2023/07/09 10:57:00;;;;;;;9.00;5.28;;;31.60;94.30;;;;;;4994883;28;20060;-73
2023/07/09 10:59:33;;;;;;;8.95;5.53;;;31.70;94.70;;;;;;4998440;28;20045;-73
2023/07/09 11:02:11;;;;;;;9.38;4.65;;;31.60;94.50;;;;;;5008445;28;20026;-73
2023/07/09 11:04:46;;;;;;;10.20;5.53;;;31.40;94.70;;;;;;5007901;28;20058;-73
2023/07/09 11:07:17;;;;;;;9.15;5.18;;;31.40;94.50;;;;;;5007895;28;20096;-73
2023/07/09 11:09:45;;;;;;;8.20;5.00;;;31.60;95.00;;;;;;4994533;28;20345;-73
2023/07/09 11:12:21;;;;;;;10.70;5.80;;;31.80;95.30;;;;;;5002184;28;20432;-73
2023/07/09 11:15:06;;;;;;;9.05;4.68;;;31.90;95.50;;;;;;4990969;28;20030;-73
2023/07/09 11:17:40;;;;;;;9.10;4.72;;;31.60;94.60;;;;;;5007692;28;20034;-73
2023/07/09 11:20:26;;;;;;;6.45;4.35;;;31.60;94.20;;;;;;5000562;28;20129;-73
2023/07/09 11:23:06;;;;;;;12.48;5.60;;;31.60;94.00;;;;;;5007816;28;20052;-73
2023/07/09 11:25:42;;;;;;;7.43;4.75;;;31.80;93.80;;;;;;4994283;28;20038;-73
2023/07/09 11:28:09;;;;;;;8.98;4.80;;;32.10;93.90;;;;;;5005504;28;20037;-73
2023/07/09 11:30:51;;;;;;;7.10;4.65;;;32.00;92.90;;;;;;5002238;28;20017;-73
2023/07/09 11:33:29;;;;;;;6.53;4.18;;;31.90;94.30;;;;;;5007496;28;20064;-73
2023/07/09 11:36:23;;;;;;;9.93;4.93;;;31.90;93.40;;;;;;4994393;28;20084;-73
2023/07/09 11:38:49;;;;;;;9.40;4.75;;;31.90;93.50;;;;;;5003886;28;20042;-73
2023/07/09 11:41:34;;;;;;;7.82;4.22;;;32.20;93.50;;;;;;5005006;28;20511;-73
2023/07/09 11:44:28;;;;;;;8.90;4.63;;;32.30;94.50;;;;;;4998750;28;20040;-73
2023/07/09 11:47:17;;;;;;;10.68;5.28;;;32.40;93.70;;;;;;4991429;28;20018;-73
2023/07/09 11:50:05;;;;;;;9.05;4.82;;;32.30;92.90;;;;;;5003889;28;20061;-73
2023/07/09 11:52:43;;;;;;;7.20;4.55;;;32.30;95.40;;;;;;5001270;28;20034;-73
2023/07/09 11:55:28;;;;;;;7.93;4.93;;;32.20;93.50;;;;;;5003792;28;20022;-73
2023/07/09 11:58:01;;;;;;;11.40;5.95;;;32.20;92.70;;;;;;5004649;28;20038;-73
2023/07/09 12:00:34;;;;;;;7.03;4.78;;;32.20;93.20;;;;;;5006724;28;20104;-73
2023/07/09 12:03:00;;;;;;;8.38;5.38;;;32.00;92.10;;;;;;5007508;28;20149;-73
2023/07/09 12:05:28;;;;;;;6.78;4.50;;;32.00;93.10;;;;;;5007160;28;20435;-73
2023/07/09 12:07:59;;;;;;;8.85;4.65;;;32.50;92.60;;;;;;5007266;28;20638;-73
2023/07/09 12:10:33;;;;;;;9.77;4.45;;;32.60;91.60;;;;;;5007049;28;20029;-73
2023/07/09 12:13:00;;;;;;;8.07;4.63;;;32.60;91.90;;;;;;5007280;28;20030;-73
2023/07/09 12:15:29;;;;;;;10.20;4.70;;;32.60;91.90;;;;;;5006676;28;20022;-73
2023/07/09 12:18:04;;;;;;;10.52;4.53;;;33.00;92.20;;;;;;5003053;28;20053;-73
2023/07/09 12:20:33;;;;;;;6.13;4.32;;;33.00;91.70;;;;;;5007088;28;20503;-73
2023/07/09 12:23:00;;;;;;;7.32;4.85;;;33.10;92.40;;;;;;5022260;28;20559;-73
2023/07/09 12:25:27;;;;;;;7.63;4.22;;;33.20;92.90;;;;;;4999788;28;20091;-73
2023/07/09 12:27:53;;;;;;;8.82;4.75;;;33.30;92.70;;;;;;5005830;28;20673;-73
2023/07/09 12:30:20;;;;;;;8.65;4.72;;;33.20;91.40;;;;;;5001261;28;20088;-73
2023/07/09 12:32:52;;;;;;;7.80;4.95;;;33.30;91.20;;;;;;5004857;28;20041;-73
2023/07/09 12:35:19;;;;;;;10.80;4.78;;;33.30;91.60;;;;;;5000825;28;20022;-73
2023/07/09 12:37:47;;;;;;;5.18;3.58;;;33.60;92.90;;;;;;5006513;28;20038;-73
2023/07/09 12:40:27;;;;;;;7.43;4.65;;;33.30;90.80;;;;;;5006778;28;20646;-73
2023/07/09 12:42:52;;;;;;;8.32;3.80;;;33.40;91.60;;;;;;5004319;28;20403;-73
2023/07/09 12:45:21;;;;;;;8.32;4.47;;;33.60;92.70;;;;;;5006189;28;20033;-73
2023/07/09 12:47:49;;;;;;;9.85;4.35;;;33.60;92.30;;;;;;5001358;28;20068;-73
2023/07/09 12:50:29;;;;;;;8.27;3.83;;;33.50;90.30;;;;;;5001639;28;20033;-72
2023/07/09 12:52:57;;;;;;;7.20;4.40;;;33.70;91.40;;;;;;5006933;28;20038;-72